Time;durP1;ratioP1;P1;durP2;ratioP2;P2;SDS_P1;SDS_P2;PMS_P1;PMS_P2;Temp;Humidity;BMP_temperature;BMP_pressure;BME280_temperature;BME280_humidity;BME280_pressure;Samples;Min_cycle;Max_cycle;Signal;HPM_P1;HPM_P2
2023/10/14 00:01:07;;;;;;;16.00;6.78;;;;;;;19.88;43.41;100035.31;5049788;28;20079;-39
2023/10/14 00:03:32;;;;;;;9.93;5.15;;;;;;;19.72;43.65;100039.78;5049702;28;20064;-38
2023/10/14 00:06:08;;;;;;;10.75;5.68;;;;;;;19.68;43.92;100029.69;5049611;28;20114;-39
2023/10/14 00:08:47;;;;;;;11.77;5.65;;;;;;;19.59;44.39;100026.66;5049776;28;20025;-39
2023/10/14 00:11:16;;;;;;;10.63;5.43;;;;;;;19.73;43.86;100019.78;5049497;28;20025;-38
2023/10/14 00:13:48;;;;;;;15.27;5.80;;;;;;;19.66;44.35;100029.94;5049738;28;20268;-38
2023/10/14 00:18:55;;;;;;;9.88;4.90;;;;;;;19.44;43.88;100021.09;5053223;28;20461;-37
2023/10/14 00:21:27;;;;;;;13.82;5.70;;;;;;;19.37;44.58;100015.94;5052951;28;20091;-38
2023/10/14 00:23:56;;;;;;;20.90;5.50;;;;;;;19.43;44.68;100020.28;5053261;28;20025;-38
2023/10/14 00:26:25;;;;;;;13.55;5.35;;;;;;;19.44;44.94;100018.41;5053256;28;20048;-37
2023/10/14 00:28:54;;;;;;;20.10;5.55;;;;;;;19.48;44.54;100014.97;5053021;28;20025;-38
2023/10/14 00:31:23;;;;;;;10.63;4.80;;;;;;;19.49;43.76;100008.47;5052914;28;20022;-39
2023/10/14 00:33:52;;;;;;;8.50;4.90;;;;;;;19.26;43.92;99993.41;5052687;28;20115;-39
2023/10/14 00:36:22;;;;;;;9.75;4.85;;;;;;;19.27;44.00;99996.97;5052593;28;20017;-39
2023/10/14 00:38:55;;;;;;;9.05;4.68;;;;;;;19.38;43.90;100000.53;5053036;28;20020;-41
2023/10/14 00:41:25;;;;;;;12.68;5.00;;;;;;;19.40;44.12;99995.72;5052723;28;20107;-39
2023/10/14 00:43:50;;;;;;;;;;;;;;;19.67;43.18;99998.41;5052995;28;20078;-39
2023/10/14 00:46:17;;;;;;;9.02;4.50;;;;;;;19.47;43.45;99991.72;5052797;28;20003;-39
2023/10/14 00:48:46;;;;;;;9.30;4.55;;;;;;;19.39;43.52;99994.09;5052677;28;20013;-38
2023/10/14 00:51:19;;;;;;;8.93;4.55;;;;;;;19.33;43.75;99985.94;5053106;28;20025;-40
2023/10/14 00:54:01;;;;;;;7.97;4.32;;;;;;;19.25;44.08;99981.00;5052673;28;20138;-37
2023/10/14 00:56:30;;;;;;;7.60;4.10;;;;;;;19.25;43.83;99981.00;5052510;28;20020;-37
2023/10/14 00:58:58;;;;;;;10.07;4.10;;;;;;;19.32;43.45;99976.25;5052516;28;20021;-39
2023/10/14 01:01:52;;;;;;;10.00;4.75;;;;;;;19.27;43.90;99973.47;5052272;28;20053;-39
2023/10/14 01:04:18;;;;;;;10.63;4.35;;;;;;;19.28;43.69;99969.69;5052243;28;20500;-39
2023/10/14 01:06:59;;;;;;;8.13;4.45;;;;;;;19.19;43.72;99973.13;5052198;28;20031;-39
2023/10/14 01:09:33;;;;;;;9.25;5.00;;;;;;;18.89;44.77;99969.06;5052447;28;20021;-40
2023/10/14 01:12:16;;;;;;;7.50;4.93;;;;;;;18.95;44.80;99973.41;5052401;28;20017;-40
2023/10/14 01:14:45;;;;;;;9.38;5.00;;;;;;;19.04;44.66;99976.47;5052587;28;20368;-39
2023/10/14 01:17:20;;;;;;;8.40;4.50;;;;;;;19.08;44.80;99962.22;5052592;28;20098;-39
2023/10/14 01:19:46;;;;;;;10.35;5.00;;;;;;;19.08;45.00;99956.84;5052625;28;20412;-40
2023/10/14 01:22:12;;;;;;;9.13;4.32;;;;;;;19.05;45.17;99961.94;5052841;28;20032;-39
2023/10/14 01:24:39;;;;;;;10.15;4.70;;;;;;;19.01;44.91;99956.22;5052536;28;20027;-40
2023/10/14 01:27:06;;;;;;;9.90;4.50;;;;;;;19.04;44.85;99961.13;5052560;28;20051;-38
2023/10/14 01:29:39;;;;;;;12.90;4.85;;;;;;;19.03;44.92;99955.97;5051851;28;20036;-40
2023/10/14 01:32:24;;;;;;;6.38;4.30;;;;;;;19.18;44.67;99953.44;5052445;28;20381;-39
2023/10/14 01:34:56;;;;;;;6.63;3.92;;;;;;;19.03;43.81;99943.28;5052440;28;20100;-39
2023/10/14 01:37:26;;;;;;;8.73;3.95;;;;;;;18.95;44.13;99947.25;5052288;28;20420;-39
2023/10/14 01:39:56;;;;;;;;;;;;;;;19.29;43.72;99941.66;5052847;28;20025;-40
2023/10/14 01:42:22;;;;;;;10.35;4.57;;;;;;;19.09;44.25;99941.47;5052308;28;20399;-41
2023/10/14 01:44:53;;;;;;;11.93;4.40;;;;;;;18.98;44.78;99945.94;5052239;28;20119;-48
2023/10/14 01:47:19;;;;;;;7.45;4.20;;;;;;;18.97;45.45;99946.22;5052324;28;20485;-40
2023/10/14 01:49:44;;;;;;;9.02;4.78;;;;;;;19.03;45.37;99948.69;5051753;28;20550;-40
2023/10/14 01:52:15;;;;;;;8.13;4.75;;;;;;;19.09;45.57;99950.38;5052266;28;20021;-40
2023/10/14 01:54:41;;;;;;;10.75;4.57;;;;;;;19.12;45.16;99951.75;5052133;28;20108;-40
2023/10/14 01:57:11;;;;;;;8.88;4.28;;;;;;;19.03;44.98;99951.38;5051916;28;20108;-39
2023/10/14 01:59:39;;;;;;;8.63;4.45;;;;;;;19.02;44.91;99947.06;5052263;28;20021;-39
2023/10/14 02:02:05;;;;;;;12.20;4.60;;;;;;;18.89;45.23;99947.47;5052001;28;20580;-39
2023/10/14 02:04:30;;;;;;;8.05;4.32;;;;;;;18.71;45.21;99946.69;5051837;28;20372;-39
2023/10/14 02:07:30;;;;;;;9.95;4.55;;;;;;;18.84;45.15;99952.81;5051778;28;20032;-39
2023/10/14 02:09:55;;;;;;;11.43;4.47;;;;;;;18.78;45.14;99945.72;5051644;28;20492;-40
2023/10/14 02:12:22;;;;;;;6.38;4.32;;;;;;;18.82;45.43;99946.84;5051716;28;20020;-40
2023/10/14 02:14:57;;;;;;;7.93;4.35;;;;;;;18.79;45.18;99934.69;5051750;28;20032;-40
2023/10/14 02:17:24;;;;;;;7.32;3.80;;;;;;;18.93;45.11;99940.50;5051342;28;20033;-39
2023/10/14 02:19:51;;;;;;;6.63;3.75;;;;;;;18.81;44.98;99939.81;5051140;28;20031;-39
2023/10/14 02:22:21;;;;;;;9.90;4.38;;;;;;;18.65;45.27;99939.63;5051493;28;20053;-40
2023/10/14 02:24:48;;;;;;;8.65;4.05;;;;;;;18.67;45.30;99937.47;5051489;28;20162;-38
2023/10/14 02:27:14;;;;;;;7.75;3.95;;;;;;;18.68;45.65;99938.31;5051446;28;20031;-39
2023/10/14 02:29:45;;;;;;;12.63;4.03;;;;;;;18.60;45.83;99922.56;5051364;28;20021;-39
2023/10/14 02:32:14;;;;;;;6.05;3.65;;;;;;;18.68;45.31;99935.63;5051262;28;20021;-39
2023/10/14 02:34:40;;;;;;;7.53;3.95;;;;;;;18.63;45.22;99933.66;5051117;28;20025;-39
2023/10/14 02:37:13;;;;;;;9.75;4.18;;;;;;;18.61;44.82;99925.03;5051101;28;20072;-41
2023/10/14 02:39:38;;;;;;;8.18;4.10;;;;;;;18.52;44.93;99930.06;5051308;28;20040;-40
2023/10/14 02:44:43;;;;;;;5.63;3.85;;;;;;;18.49;44.73;99938.63;5051338;28;20017;-39
2023/10/14 02:47:09;;;;;;;7.85;3.83;;;;;;;18.39;45.09;99937.69;5050964;28;20036;-38
2023/10/14 02:49:42;;;;;;;11.65;4.57;;;;;;;18.32;45.32;99938.69;5050882;28;20024;-39
2023/10/14 02:52:12;;;;;;;10.38;4.30;;;;;;;18.27;45.51;99949.38;5050786;28;20468;-38
2023/10/14 02:54:44;;;;;;;8.50;4.15;;;;;;;18.26;45.54;99939.69;5051022;28;20021;-39
2023/10/14 02:57:13;;;;;;;8.48;4.05;;;;;;;18.22;45.62;99945.81;5050791;28;20021;-39
2023/10/14 03:04:48;;;;;;;9.35;4.30;;;;;;;18.01;46.71;99944.72;5051041;28;20078;-39
2023/10/14 03:07:27;;;;;;;10.63;4.65;;;;;;;17.89;46.67;99934.88;5050674;28;20060;-39
2023/10/14 03:09:58;;;;;;;8.45;4.18;;;;;;;17.96;46.30;99945.47;5050577;28;20104;-39
2023/10/14 03:12:27;;;;;;;12.27;4.47;;;;;;;18.00;46.31;99951.19;5050910;28;20354;-40
2023/10/14 03:14:53;;;;;;;8.45;4.25;;;;;;;18.01;46.41;99942.88;5050401;28;20530;-39
2023/10/14 03:17:39;;;;;;;7.10;4.40;;;;;;;18.00;46.12;99938.53;5050571;28;20025;-39
2023/10/14 03:20:25;;;;;;;8.88;4.20;;;;;;;17.88;46.50;99921.69;5050593;28;20116;-39
2023/10/14 03:22:50;;;;;;;7.80;4.30;;;;;;;17.97;46.66;99941.69;5050788;28;20059;-39
2023/10/14 03:25:23;;;;;;;8.40;4.70;;;;;;;18.00;46.54;99946.59;5050843;28;20108;-40
2023/10/14 03:27:58;;;;;;;13.45;4.32;;;;;;;17.94;46.58;99943.03;5050423;28;20024;-39
2023/10/14 03:30:24;;;;;;;8.23;4.65;;;;;;;17.62;46.93;99915.88;5050494;28;20021;-39
2023/10/14 03:32:49;;;;;;;12.43;4.22;;;;;;;17.66;46.91;99938.53;5050161;28;20021;-38
2023/10/14 03:35:20;;;;;;;8.90;4.63;;;;;;;17.59;47.44;99944.09;5049023;28;20040;-39
2023/10/14 03:37:53;;;;;;;13.48;5.35;;;;;;;17.47;47.54;99942.53;5050380;28;20080;-40
2023/10/14 03:43:14;;;;;;;10.68;4.40;;;;;;;17.53;47.58;99934.28;5030364;28;20030;-39
2023/10/14 03:48:29;;;;;;;11.77;4.55;;;;;;;17.49;47.61;99938.53;5030926;28;20099;-39
2023/10/14 03:51:02;;;;;;;8.88;4.80;;;;;;;17.46;47.64;99939.03;5031097;28;20036;-39
2023/10/14 03:53:32;;;;;;;6.75;4.28;;;;;;;17.35;48.11;99937.22;5034203;28;20026;-39
2023/10/14 03:56:00;;;;;;;12.65;4.85;;;;;;;17.24;48.29;99938.09;5034253;28;20116;-40
2023/10/14 03:58:25;;;;;;;11.48;4.43;;;;;;;17.27;48.43;99937.59;5034161;28;20469;-38
2023/10/14 04:00:52;;;;;;;9.27;4.72;;;;;;;17.30;48.19;99934.44;5034368;28;20021;-38
2023/10/14 04:03:39;;;;;;;8.23;4.15;;;;;;;17.20;48.69;99932.41;5034823;28;20100;-39
2023/10/14 04:06:07;;;;;;;8.52;4.50;;;;;;;17.20;48.47;99938.59;5034019;28;20353;-39
2023/10/14 04:08:39;;;;;;;10.27;4.50;;;;;;;17.19;48.62;99930.75;5034439;28;20027;-39
2023/10/14 04:11:14;;;;;;;9.10;4.45;;;;;;;17.17;48.49;99933.72;5034375;28;20132;-40
2023/10/14 04:14:02;;;;;;;9.93;4.75;;;;;;;17.16;48.58;99928.56;5034218;28;20017;-39
2023/10/14 04:16:36;;;;;;;9.35;4.43;;;;;;;17.07;48.63;99933.50;5034203;28;20485;-40
2023/10/14 04:19:15;;;;;;;8.27;5.25;;;;;;;17.24;48.37;99940.81;5034578;28;20114;-40
2023/10/14 04:21:42;;;;;;;11.23;4.85;;;;;;;17.23;48.27;99936.47;5043735;28;20025;-40
2023/10/14 04:26:51;;;;;;;10.80;4.57;;;;;;;17.16;48.71;99933.94;5053850;28;20037;-40
2023/10/14 04:29:39;;;;;;;10.82;5.07;;;;;;;16.79;50.15;99931.63;5053654;28;20089;-41
2023/10/14 04:32:27;;;;;;;9.88;4.82;;;;;;;16.79;49.57;99931.63;5053764;28;20051;-39
2023/10/14 04:34:54;;;;;;;10.82;4.78;;;;;;;16.84;50.07;99949.75;5053432;28;20373;-41
2023/10/14 04:37:20;;;;;;;10.32;4.70;;;;;;;16.91;49.98;99943.19;5053746;28;20045;-39
2023/10/14 04:39:47;;;;;;;15.35;4.72;;;;;;;16.89;50.16;99937.22;5053786;28;20489;-40
2023/10/14 04:44:54;;;;;;;13.32;5.55;;;;;;;16.89;50.11;99947.16;5054110;28;20025;-39
2023/10/14 04:47:27;;;;;;;7.40;4.97;;;;;;;16.89;50.16;99947.16;5053375;28;20027;-39
2023/10/14 04:49:53;;;;;;;14.05;5.00;;;;;;;16.84;50.03;99941.69;5053762;28;20610;-40
2023/10/14 04:52:18;;;;;;;10.68;5.05;;;;;;;16.76;50.18;99942.84;5053976;28;20017;-40
2023/10/14 04:57:33;;;;;;;7.60;4.22;;;;;;;16.94;50.12;99948.06;5033528;28;20041;-38
2023/10/14 05:00:08;;;;;;;9.40;4.90;;;;;;;17.26;49.37;99955.63;5053533;28;20447;-39
2023/10/14 05:02:37;;;;;;;7.43;4.28;;;;;;;17.53;48.88;99955.81;5052475;28;20020;-39
2023/10/14 05:05:06;;;;;;;10.93;4.38;;;;;;;17.71;48.53;99945.88;5053368;28;20032;-39
2023/10/14 05:07:32;;;;;;;9.82;5.20;;;;;;;17.96;47.74;99948.97;5053525;28;20024;-39
2023/10/14 05:10:05;;;;;;;12.70;5.03;;;;;;;18.24;47.55;99947.22;5053543;28;20021;-39
2023/10/14 05:12:30;;;;;;;11.30;4.53;;;;;;;18.37;48.54;99951.41;5051256;28;20432;-40
2023/10/14 05:14:56;;;;;;;9.02;4.30;;;;;;;18.66;46.39;99949.34;5053443;28;20017;-40
2023/10/14 05:17:25;;;;;;;16.08;4.90;;;;;;;18.93;45.71;99956.69;5053512;28;20024;-40
2023/10/14 05:19:57;;;;;;;10.80;4.88;;;;;;;19.30;45.24;99955.97;5053217;28;20020;-40
2023/10/14 05:22:37;;;;;;;9.82;4.95;;;;;;;19.64;44.47;99961.09;5053272;28;20025;-39
2023/10/14 05:25:08;;;;;;;12.00;4.75;;;;;;;19.92;43.70;99954.59;5053014;28;20052;-40
2023/10/14 05:27:46;;;;;;;9.45;4.40;;;;;;;20.09;43.32;99962.53;5052738;28;20033;-39
2023/10/14 05:30:15;;;;;;;9.60;3.88;;;;;;;20.24;42.50;99959.91;5052987;28;20087;-38
2023/10/14 05:32:43;;;;;;;8.40;4.38;;;;;;;20.74;41.73;99967.72;5053214;28;20033;-40
2023/10/14 05:35:09;;;;;;;30.95;19.25;;;;;;;20.92;41.36;99963.72;5052024;28;20036;-38
2023/10/14 05:37:36;;;;;;;18.08;7.63;;;;;;;21.26;40.69;99964.84;5051202;28;20452;-39
2023/10/14 05:40:01;;;;;;;20.20;12.32;;;;;;;21.53;40.28;99971.94;5051140;28;20029;-39
2023/10/14 05:42:27;;;;;;;24.40;15.25;;;;;;;21.93;39.72;99980.31;5051194;28;20031;-39
2023/10/14 05:45:04;;;;;;;13.88;7.10;;;;;;;22.23;39.40;99974.03;5051363;28;20025;-45
2023/10/14 05:47:29;;;;;;;16.25;5.30;;;;;;;22.38;39.45;99978.63;5051436;28;20025;-39
2023/10/14 05:49:55;;;;;;;10.65;4.70;;;;;;;22.83;38.61;99983.06;5051336;28;20040;-40
2023/10/14 05:52:26;;;;;;;10.00;4.82;;;;;;;23.10;38.10;99972.91;5052150;28;20029;-40
2023/10/14 05:54:52;;;;;;;10.88;4.78;;;;;;;23.61;37.17;99980.69;5052436;28;20457;-39
2023/10/14 05:57:17;;;;;;;10.75;4.65;;;;;;;23.96;36.46;99976.03;5052245;28;20063;-40
2023/10/14 05:59:43;;;;;;;9.00;4.43;;;;;;;24.40;34.88;99980.47;5051689;28;20109;-40
2023/10/14 06:02:12;;;;;;;9.60;4.07;;;;;;;24.47;34.61;99977.41;5051246;28;20087;-39
2023/10/14 06:04:39;;;;;;;9.55;4.20;;;;;;;24.69;34.02;99976.88;5051869;28;20031;-41
2023/10/14 06:07:08;;;;;;;14.00;4.18;;;;;;;24.94;33.52;99976.53;5051899;28;20090;-39
2023/10/14 06:09:34;;;;;;;;;;;;;;;25.53;32.68;99982.50;5052133;28;20032;-40
2023/10/14 06:12:00;;;;;;;8.70;3.88;;;;;;;25.79;32.75;99982.06;5051848;28;19908;-39
2023/10/14 06:14:26;;;;;;;9.40;3.90;;;;;;;26.16;32.01;99980.34;5051587;28;20063;-39
2023/10/14 06:16:51;;;;;;;8.02;4.07;;;;;;;26.28;31.49;99977.09;5051798;28;20083;-42
2023/10/14 06:19:18;;;;;;;10.52;6.82;;;;;;;26.57;31.30;99978.72;5051632;28;20108;-39
2023/10/14 06:21:44;;;;;;;13.50;6.88;;;;;;;26.76;31.04;99971.22;5050406;28;20044;-39
2023/10/14 06:24:12;;;;;;;10.88;4.70;;;;;;;27.18;30.92;99982.06;5051815;28;20024;-40
2023/10/14 06:26:38;;;;;;;14.00;8.68;;;;;;;27.43;30.21;99972.47;5051878;28;20178;-41
2023/10/14 06:29:05;;;;;;;10.10;5.55;;;;;;;27.65;29.54;99974.38;5051246;28;20124;-41
2023/10/14 06:31:30;;;;;;;9.63;5.68;;;;;;;27.90;29.66;99970.22;5050904;28;20021;-41
2023/10/14 06:33:56;;;;;;;8.00;4.90;;;;;;;28.12;29.38;99979.47;5051027;28;20028;-42
2023/10/14 06:36:24;;;;;;;12.77;6.90;;;;;;;28.20;29.12;99973.25;5050555;28;20025;-43
2023/10/14 06:38:50;;;;;;;9.70;4.25;;;;;;;28.45;28.78;99968.97;5050934;28;20100;-43
2023/10/14 06:41:18;;;;;;;10.35;4.40;;;;;;;28.82;28.11;99977.78;5050205;28;20021;-44
2023/10/14 06:43:55;;;;;;;10.30;4.68;;;;;;;28.93;28.13;99970.06;5050168;28;20028;-43
2023/10/14 06:46:21;;;;;;;9.00;4.35;;;;;;;29.32;27.72;99969.13;5050166;28;20059;-43
2023/10/14 06:48:52;;;;;;;8.80;4.15;;;;;;;29.71;26.62;99963.75;5050081;28;20060;-43
2023/10/14 06:51:18;;;;;;;7.80;4.25;;;;;;;29.69;26.34;99968.75;5048053;28;20020;-44
2023/10/14 06:53:44;;;;;;;8.45;3.97;;;;;;;29.65;26.38;99965.84;5050648;28;20372;-42
2023/10/14 06:56:11;;;;;;;8.15;4.07;;;;;;;29.90;26.25;99964.19;5050149;28;20029;-43
2023/10/14 06:58:39;;;;;;;11.02;3.00;;;;;;;30.01;25.94;99964.66;5049859;28;20025;-41
2023/10/14 07:01:05;;;;;;;7.40;3.50;;;;;;;30.12;25.76;99959.56;5050054;28;20017;-46
2023/10/14 07:03:31;;;;;;;7.28;3.80;;;;;;;30.32;25.17;99969.84;5050155;28;20021;-45
2023/10/14 07:08:27;;;;;;;8.77;3.63;;;;;;;30.59;25.11;99965.00;5050183;28;20019;-42
2023/10/14 07:10:54;;;;;;;10.63;3.88;;;;;;;30.73;24.84;99964.75;5049567;28;20032;-46
2023/10/14 07:13:24;;;;;;;12.10;3.65;;;;;;;30.89;24.68;99962.22;5049413;28;20096;-45
2023/10/14 07:15:51;;;;;;;9.05;3.70;;;;;;;30.49;24.75;99954.44;5048955;28;20037;-44
2023/10/14 07:18:23;;;;;;;9.13;3.40;;;;;;;30.76;24.50;99961.34;5049913;28;20055;-42
2023/10/14 07:21:14;;;;;;;8.07;3.40;;;;;;;31.04;24.68;99947.13;5051579;28;20102;-42
2023/10/14 07:23:40;;;;;;;6.43;3.63;;;;;;;31.18;24.43;99953.13;5050750;28;20076;-42
2023/10/14 07:26:09;;;;;;;7.85;3.40;;;;;;;30.99;24.28;99946.16;5050751;28;20111;-41
2023/10/14 07:28:35;;;;;;;5.88;3.60;;;;;;;31.13;24.25;99951.41;5054479;28;20025;-41
2023/10/14 07:31:00;;;;;;;11.23;3.45;;;;;;;31.22;24.16;99950.50;5053570;28;20024;-40
2023/10/14 07:33:26;;;;;;;10.60;3.58;;;;;;;31.24;23.69;99949.03;5054551;28;20021;-43
2023/10/14 07:35:51;;;;;;;10.98;3.60;;;;;;;31.42;23.54;99949.66;5054259;28;20021;-39
2023/10/14 07:38:17;;;;;;;8.65;3.55;;;;;;;31.53;23.53;99941.84;5053942;28;20450;-42
2023/10/14 07:40:42;;;;;;;10.10;3.40;;;;;;;31.52;23.28;99943.75;5053859;28;20071;-39
2023/10/14 07:43:11;;;;;;;7.57;3.85;;;;;;;31.16;23.90;99941.66;5054063;28;20365;-41
2023/10/14 07:45:42;;;;;;;10.45;3.50;;;;;;;31.66;23.28;99935.22;5053582;28;20039;-42
2023/10/14 07:48:08;;;;;;;5.07;3.00;;;;;;;32.08;22.89;99942.50;5053964;28;20017;-40
2023/10/14 07:50:42;;;;;;;9.27;3.22;;;;;;;32.30;22.68;99933.00;5054239;28;20085;-41
2023/10/14 07:53:12;;;;;;;12.48;3.50;;;;;;;32.23;23.02;99936.31;5053984;28;20017;-44
2023/10/14 07:55:41;;;;;;;6.45;3.22;;;;;;;32.46;22.54;99928.38;5053797;28;20021;-42
2023/10/14 07:58:10;;;;;;;8.07;3.58;;;;;;;31.88;23.25;99931.22;5053967;28;20052;-41
2023/10/14 08:00:38;;;;;;;8.13;3.90;;;;;;;31.05;23.97;99926.72;5053989;28;20068;-41
2023/10/14 08:03:06;;;;;;;7.30;3.80;;;;;;;31.71;23.38;99917.69;5053983;28;20025;-42
2023/10/14 08:05:35;;;;;;;11.40;3.83;;;;;;;31.58;24.05;99905.06;5053426;28;20028;-44
2023/10/14 08:08:06;;;;;;;6.90;3.78;;;;;;;31.92;23.56;99920.34;5053709;28;20060;-39
2023/10/14 08:10:32;;;;;;;10.82;4.10;;;;;;;32.37;23.27;99919.44;5053240;28;20039;-43
2023/10/14 08:13:01;;;;;;;12.93;3.83;;;;;;;31.71;23.49;99914.94;5053237;28;20025;-41
2023/10/14 08:15:29;;;;;;;7.97;3.75;;;;;;;31.35;24.23;99921.94;5053588;28;20025;-40
2023/10/14 08:17:58;;;;;;;9.90;4.20;;;;;;;31.54;24.24;99902.19;5053855;28;20032;-43
2023/10/14 08:20:25;;;;;;;7.43;3.80;;;;;;;31.86;23.64;99906.00;5053347;28;20150;-41
2023/10/14 08:22:52;;;;;;;;;;;;;;;32.18;23.34;99906.28;5053922;28;20028;-42
2023/10/14 08:25:18;;;;;;;11.07;4.10;;;;;;;32.32;23.19;99912.22;5053421;28;19979;-41
2023/10/14 08:27:45;;;;;;;7.63;4.07;;;;;;;32.66;22.88;99909.31;5053476;28;20105;-42
2023/10/14 08:30:11;;;;;;;10.77;3.80;;;;;;;32.93;22.56;99905.78;5053142;28;20028;-42
2023/10/14 08:32:40;;;;;;;10.15;3.78;;;;;;;33.13;22.54;99896.88;5052798;28;20028;-42
2023/10/14 08:35:17;;;;;;;8.52;3.60;;;;;;;32.65;22.79;99908.53;5052741;28;20680;-41
2023/10/14 08:37:52;;;;;;;7.10;3.92;;;;;;;32.71;22.93;99900.78;5049931;28;20109;-43
2023/10/14 08:40:20;;;;;;;5.78;3.78;;;;;;;33.07;22.71;99897.13;5052634;28;20457;-42
2023/10/14 08:42:49;;;;;;;10.60;3.80;;;;;;;33.39;22.09;99896.41;5052565;28;20515;-45
2023/10/14 08:45:16;;;;;;;;;;;;;;;33.73;21.77;99885.88;5053066;28;20366;-42
2023/10/14 08:47:45;;;;;;;8.52;3.45;;;;;;;33.50;21.48;99878.97;5050267;28;19931;-43
2023/10/14 08:50:15;;;;;;;9.77;3.30;;;;;;;33.21;21.49;99876.66;5052949;28;20036;-43
2023/10/14 08:52:45;;;;;;;10.88;3.60;;;;;;;32.61;22.42;99882.00;5052717;28;20039;-45
2023/10/14 08:55:13;;;;;;;7.00;3.55;;;;;;;32.68;22.64;99877.50;5053381;28;20356;-44
2023/10/14 08:57:39;;;;;;;7.70;3.47;;;;;;;32.73;22.20;99876.47;5053122;28;20021;-43
2023/10/14 09:00:06;;;;;;;7.30;3.78;;;;;;;32.80;22.08;99867.59;5052931;28;20025;-41
2023/10/14 09:02:36;;;;;;;7.40;3.97;;;;;;;32.78;22.55;99867.94;5052419;28;20029;-41
2023/10/14 09:05:03;;;;;;;5.72;3.17;;;;;;;32.98;22.10;99857.91;5052707;28;20090;-41
2023/10/14 09:07:31;;;;;;;6.85;3.38;;;;;;;33.28;21.54;99861.09;5053181;28;20040;-42
2023/10/14 09:09:56;;;;;;;8.15;3.60;;;;;;;32.66;21.92;99855.03;5051965;28;20029;-41
2023/10/14 09:12:22;;;;;;;13.05;3.67;;;;;;;32.69;22.23;99861.78;5051278;28;20456;-42
2023/10/14 09:14:50;;;;;;;9.80;3.85;;;;;;;32.59;22.24;99849.31;5052026;28;20053;-42
2023/10/14 09:17:16;;;;;;;8.80;3.45;;;;;;;31.89;22.96;99844.81;5051524;28;20441;-39
2023/10/14 09:19:51;;;;;;;8.27;3.42;;;;;;;31.58;23.14;99844.56;5052487;28;20059;-42
2023/10/14 09:22:34;;;;;;;7.97;3.30;;;;;;;31.16;23.54;99835.28;5051981;28;20031;-43
2023/10/14 09:25:00;;;;;;;7.93;3.30;;;;;;;30.65;24.00;99836.56;5052160;28;20029;-41
2023/10/14 09:27:31;;;;;;;6.80;3.33;;;;;;;30.55;24.19;99833.09;5052343;28;20035;-41
2023/10/14 09:29:57;;;;;;;11.07;3.78;;;;;;;30.38;24.80;99825.78;5051750;28;20021;-42
2023/10/14 09:32:27;;;;;;;9.55;3.67;;;;;;;30.56;24.50;99820.97;5051830;28;20546;-44
2023/10/14 09:34:52;;;;;;;8.93;3.90;;;;;;;30.72;24.36;99821.16;5052033;28;20100;-43
2023/10/14 09:37:18;;;;;;;6.70;3.53;;;;;;;31.04;23.44;99816.03;5052193;28;20131;-42
2023/10/14 09:39:48;;;;;;;9.65;3.60;;;;;;;30.67;24.06;99807.63;5051980;28;20036;-42
2023/10/14 09:42:15;;;;;;;4.95;3.50;;;;;;;30.44;24.80;99800.88;5052115;28;20443;-41
2023/10/14 09:44:43;;;;;;;7.97;3.42;;;;;;;30.45;24.45;99784.09;5052217;28;20025;-44
2023/10/14 09:47:19;;;;;;;4.43;3.23;;;;;;;29.16;25.88;99792.66;5051945;28;20048;-44
2023/10/14 09:49:47;;;;;;;6.28;3.30;;;;;;;29.77;25.12;99793.22;5051168;28;20021;-44
2023/10/14 09:52:16;;;;;;;7.43;3.55;;;;;;;30.13;24.65;99780.91;5052457;28;20025;-43
2023/10/14 09:54:42;;;;;;;7.30;3.50;;;;;;;30.52;25.02;99762.41;5052509;28;20469;-41
2023/10/14 09:57:15;;;;;;;8.75;3.65;;;;;;;30.56;24.93;99762.53;5052419;28;20025;-44
2023/10/14 09:59:41;;;;;;;8.52;3.30;;;;;;;31.11;24.41;99752.25;5052404;28;20108;-42
2023/10/14 10:02:09;;;;;;;10.45;3.72;;;;;;;31.20;24.20;99760.41;5051754;28;20032;-43
2023/10/14 10:04:45;;;;;;;11.57;3.60;;;;;;;30.79;24.05;99754.72;5051453;28;20036;-42
2023/10/14 10:07:30;;;;;;;5.85;3.67;;;;;;;30.47;24.65;99742.59;5051783;28;20412;-42
2023/10/14 10:10:13;;;;;;;7.07;3.35;;;;;;;30.45;24.96;99744.88;5051943;28;20025;-44
2023/10/14 10:12:41;;;;;;;7.55;3.75;;;;;;;30.43;25.12;99745.19;5051585;28;20489;-43
2023/10/14 10:15:07;;;;;;;7.03;3.88;;;;;;;29.51;26.12;99740.44;5051397;28;20154;-46
2023/10/14 10:17:39;;;;;;;6.43;3.72;;;;;;;28.97;27.14;99735.50;5051416;28;20112;-41
2023/10/14 10:20:12;;;;;;;7.95;3.90;;;;;;;29.20;26.37;99728.66;5051346;28;20103;-42
2023/10/14 10:22:50;;;;;;;6.13;3.65;;;;;;;29.76;25.78;99719.56;5050748;28;20021;-43
2023/10/14 10:25:21;;;;;;;8.38;3.85;;;;;;;29.42;26.16;99718.59;5050688;28;20104;-41
2023/10/14 10:27:49;;;;;;;11.40;4.35;;;;;;;29.37;26.63;99707.81;5051195;28;20505;-43
2023/10/14 10:30:17;;;;;;;9.00;3.90;;;;;;;29.21;26.42;99705.63;5051207;28;20481;-44
2023/10/14 10:32:48;;;;;;;5.85;3.72;;;;;;;29.02;27.29;99697.78;5051244;28;20400;-39
2023/10/14 10:35:16;;;;;;;6.28;3.55;;;;;;;29.24;26.59;99694.00;5051313;28;20151;-44
2023/10/14 10:37:48;;;;;;;11.07;3.88;;;;;;;29.08;26.92;99694.88;5051018;28;20040;-44
2023/10/14 10:40:17;;;;;;;8.70;3.97;;;;;;;28.63;27.46;99685.97;5051292;28;20033;-43
2023/10/14 10:42:46;;;;;;;10.27;4.20;;;;;;;29.07;27.14;99679.53;5051276;28;20028;-44
2023/10/14 10:45:20;;;;;;;8.63;4.20;;;;;;;29.21;27.29;99667.25;5051016;28;20032;-43
2023/10/14 10:47:56;;;;;;;10.50;4.65;;;;;;;29.39;26.91;99659.75;5051145;28;20029;-39
2023/10/14 10:50:36;;;;;;;6.65;3.63;;;;;;;29.48;27.20;99661.66;5050940;28;20024;-39
2023/10/14 10:53:10;;;;;;;5.65;3.63;;;;;;;29.39;26.98;99648.78;5050461;28;20388;-42
2023/10/14 10:55:47;;;;;;;10.98;4.72;;;;;;;29.89;26.27;99641.69;5051178;28;20032;-42
2023/10/14 10:58:14;;;;;;;8.98;3.63;;;;;;;29.13;27.41;99638.00;5051091;28;20460;-40
2023/10/14 11:00:41;;;;;;;7.00;3.50;;;;;;;29.47;27.11;99636.16;5049696;28;20025;-41
2023/10/14 11:03:07;;;;;;;7.32;3.80;;;;;;;29.14;27.41;99625.09;5051001;28;20021;-40
2023/10/14 11:05:36;;;;;;;7.95;3.60;;;;;;;29.97;26.44;99629.84;5051255;28;20021;-43
2023/10/14 11:08:04;;;;;;;9.45;3.78;;;;;;;30.06;25.65;99627.00;5050807;28;20025;-41
2023/10/14 11:10:31;;;;;;;9.50;3.80;;;;;;;29.92;25.96;99618.28;5050612;28;20045;-43
2023/10/14 11:12:59;;;;;;;7.75;3.58;;;;;;;30.06;26.12;99613.28;5050341;28;20028;-43
2023/10/14 11:15:26;;;;;;;;;;;;;;;30.34;25.58;99607.25;5051031;28;20086;-41
2023/10/14 11:17:58;;;;;;;8.63;4.10;;;;;;;29.42;26.71;99595.25;5051015;28;19966;-39
2023/10/14 11:20:40;;;;;;;5.22;3.30;;;;;;;29.98;25.83;99601.25;5051182;28;20029;-40
2023/10/14 11:23:09;;;;;;;4.40;3.17;;;;;;;30.12;25.60;99595.50;5050260;28;20056;-41
2023/10/14 11:25:40;;;;;;;6.88;3.45;;;;;;;29.92;25.92;99588.91;5049967;28;20017;-42
2023/10/14 11:28:10;;;;;;;7.97;3.13;;;;;;;30.44;24.78;99590.31;5050522;28;20429;-40
2023/10/14 11:30:48;;;;;;;5.80;2.88;;;;;;;31.12;24.04;99578.03;5050809;28;20027;-44
2023/10/14 11:33:18;;;;;;;5.10;3.25;;;;;;;31.14;24.43;99583.97;5050094;28;20036;-43
2023/10/14 11:35:43;;;;;;;7.57;3.30;;;;;;;30.82;25.05;99572.75;5049610;28;20021;-43
2023/10/14 11:38:13;;;;;;;7.40;3.35;;;;;;;30.04;25.39;99574.44;5049258;28;20045;-42
2023/10/14 11:40:43;;;;;;;11.00;3.40;;;;;;;30.20;25.63;99569.13;5049932;28;20029;-41
2023/10/14 11:43:11;;;;;;;5.68;3.45;;;;;;;30.50;25.45;99566.19;5050536;28;20025;-42
2023/10/14 11:45:41;;;;;;;10.37;3.93;;;;;;;30.52;25.49;99566.66;5050572;28;20048;-42
2023/10/14 11:48:07;;;;;;;5.05;3.40;;;;;;;30.10;25.22;99553.88;5050592;28;20025;-41
2023/10/14 11:50:34;;;;;;;7.43;3.63;;;;;;;30.50;24.87;99550.56;5050055;28;20550;-41
2023/10/14 11:52:59;;;;;;;8.25;3.40;;;;;;;30.60;25.06;99539.13;5050109;28;20057;-44
2023/10/14 11:55:28;;;;;;;6.72;3.50;;;;;;;30.91;25.28;99539.69;5049809;28;20135;-44
2023/10/14 11:57:54;;;;;;;8.35;3.63;;;;;;;30.48;25.58;99541.03;5049843;28;20032;-42
2023/10/14 12:00:20;;;;;;;6.07;3.42;;;;;;;30.42;25.47;99537.72;5050298;28;20021;-42
2023/10/14 12:02:50;;;;;;;7.22;3.38;;;;;;;29.42;26.23;99533.03;5050203;28;20036;-42
2023/10/14 12:05:16;;;;;;;7.50;3.70;;;;;;;28.93;26.94;99526.41;5049852;28;20460;-42
2023/10/14 12:07:48;;;;;;;12.60;3.70;;;;;;;29.89;25.98;99515.53;5049916;28;20040;-39
2023/10/14 12:10:13;;;;;;;9.07;3.55;;;;;;;30.58;25.82;99518.66;5049802;28;20100;-41